sensor_id;sensor_type;location;lat;lon;timestamp;pressure;altitude;pressure_sealevel;temperature;humidity
11339;BME280;5724;42.684;23.252;2023-03-01T00:01:22;94783.47;;;5.15;100.00
11339;BME280;5724;42.684;23.252;2023-03-01T00:03:48;94776.94;;;5.16;100.00
11339;BME280;5724;42.684;23.252;2023-03-01T00:06:13;94764.97;;;5.17;100.00
11339;BME280;5724;42.684;23.252;2023-03-01T00:08:39;94775.50;;;5.19;100.00
11339;BME280;5724;42.684;23.252;2023-03-01T00:13:34;94762.94;;;5.23;100.00
11339;BME280;5724;42.684;23.252;2023-03-01T00:16:05;94767.69;;;5.17;100.00
11339;BME280;5724;42.684;23.252;2023-03-01T00:18:31;94730.78;;;4.91;100.00
11339;BME280;5724;42.684;23.252;2023-03-01T00:20:57;94761.44;;;5.08;100.00
11339;BME280;5724;42.684;23.252;2023-03-01T00:23:23;94742.81;;;5.07;100.00
11339;BME280;5724;42.684;23.252;2023-03-01T00:25:49;94750.16;;;5.15;100.00
11339;BME280;5724;42.684;23.252;2023-03-01T00:28:15;94749.72;;;5.22;100.00
11339;BME280;5724;42.684;23.252;2023-03-01T00:30:41;94747.13;;;5.16;100.00
11339;BME280;5724;42.684;23.252;2023-03-01T00:33:06;94739.78;;;5.08;100.00
11339;BME280;5724;42.684;23.252;2023-03-01T00:35:33;94747.94;;;5.17;100.00
11339;BME280;5724;42.684;23.252;2023-03-01T00:37:59;94747.13;;;5.16;100.00
11339;BME280;5724;42.684;23.252;2023-03-01T00:40:25;94747.13;;;5.16;100.00
11339;BME280;5724;42.684;23.252;2023-03-01T00:42:50;94743.94;;;5.14;100.00
11339;BME280;5724;42.684;23.252;2023-03-01T00:45:16;94736.28;;;5.08;100.00
11339;BME280;5724;42.684;23.252;2023-03-01T00:47:42;94741.56;;;5.13;100.00
11339;BME280;5724;42.684;23.252;2023-03-01T00:50:09;94753.00;;;5.10;100.00
11339;BME280;5724;42.684;23.252;2023-03-01T00:52:35;94738.66;;;5.09;100.00
11339;BME280;5724;42.684;23.252;2023-03-01T00:55:00;94737.22;;;5.03;100.00
11339;BME280;5724;42.684;23.252;2023-03-01T00:57:26;94738.16;;;4.99;100.00
11339;BME280;5724;42.684;23.252;2023-03-01T00:59:51;94740.06;;;4.98;100.00
11339;BME280;5724;42.684;23.252;2023-03-01T01:02:18;94746.59;;;4.97;100.00
11339;BME280;5724;42.684;23.252;2023-03-01T01:04:45;94749.75;;;4.91;100.00
11339;BME280;5724;42.684;23.252;2023-03-01T01:07:10;94756.16;;;4.95;100.00
11339;BME280;5724;42.684;23.252;2023-03-01T01:09:36;94754.72;;;4.97;100.00
11339;BME280;5724;42.684;23.252;2023-03-01T01:12:02;94756.78;;;5.00;100.00
11339;BME280;5724;42.684;23.252;2023-03-01T01:14:28;94748.19;;;4.98;100.00
11339;BME280;5724;42.684;23.252;2023-03-01T01:16:53;94749.13;;;4.94;100.00
11339;BME280;5724;42.684;23.252;2023-03-01T01:19:19;94741.94;;;4.89;100.00
11339;BME280;5724;42.684;23.252;2023-03-01T01:21:45;94751.22;;;4.97;100.00
11339;BME280;5724;42.684;23.252;2023-03-01T01:24:11;94749.78;;;4.99;100.00
11339;BME280;5724;42.684;23.252;2023-03-01T01:26:37;94747.72;;;4.96;100.00
11339;BME280;5724;42.684;23.252;2023-03-01T01:29:04;94748.97;;;4.99;100.00
11339;BME280;5724;42.684;23.252;2023-03-01T01:31:30;94739.72;;;4.91;100.00
11339;BME280;5724;42.684;23.252;2023-03-01T01:33:59;94744.00;;;4.92;100.00
11339;BME280;5724;42.684;23.252;2023-03-01T01:36:24;94753.59;;;4.98;100.00
11339;BME280;5724;42.684;23.252;2023-03-01T01:38:50;94762.72;;;5.02;100.00
11339;BME280;5724;42.684;23.252;2023-03-01T01:41:16;94761.59;;;5.03;100.00
11339;BME280;5724;42.684;23.252;2023-03-01T01:43:48;94762.69;;;4.94;100.00
11339;BME280;5724;42.684;23.252;2023-03-01T01:46:30;94757.44;;;4.97;100.00
11339;BME280;5724;42.684;23.252;2023-03-01T01:49:02;94762.47;;;4.90;100.00
11339;BME280;5724;42.684;23.252;2023-03-01T01:51:34;94762.47;;;4.90;100.00
11339;BME280;5724;42.684;23.252;2023-03-01T01:54:07;94768.09;;;4.94;100.00
11339;BME280;5724;42.684;23.252;2023-03-01T01:56:37;94759.00;;;4.98;100.00
11339;BME280;5724;42.684;23.252;2023-03-01T01:59:04;94755.47;;;4.89;100.00
11339;BME280;5724;42.684;23.252;2023-03-01T02:01:30;94753.59;;;4.98;100.00
11339;BME280;5724;42.684;23.252;2023-03-01T02:03:56;94747.88;;;5.00;100.00
11339;BME280;5724;42.684;23.252;2023-03-01T02:08:55;94734.66;;;4.98;100.00
11339;BME280;5724;42.684;23.252;2023-03-01T02:11:22;94726.41;;;5.03;100.00
11339;BME280;5724;42.684;23.252;2023-03-01T02:13:49;94710.75;;;5.00;100.00
11339;BME280;5724;42.684;23.252;2023-03-01T02:16:16;94727.34;;;5.07;100.00
11339;BME280;5724;42.684;23.252;2023-03-01T02:18:43;94710.44;;;4.93;100.00
11339;BME280;5724;42.684;23.252;2023-03-01T02:24:34;94711.88;;;4.99;100.00
11339;BME280;5724;42.684;23.252;2023-03-01T02:26:57;94715.28;;;5.13;100.00
11339;BME280;5724;42.684;23.252;2023-03-01T02:29:24;94724.50;;;5.12;99.89
11339;BME280;5724;42.684;23.252;2023-03-01T02:31:52;94733.13;;;5.14;99.58
11339;BME280;5724;42.684;23.252;2023-03-01T02:34:24;94732.94;;;5.20;99.02
11339;BME280;5724;42.684;23.252;2023-03-01T02:36:59;94745.22;;;5.17;98.83
11339;BME280;5724;42.684;23.252;2023-03-01T02:39:48;94731.66;;;5.08;99.25
11339;BME280;5724;42.684;23.252;2023-03-01T02:42:20;94736.94;;;5.13;98.82
11339;BME280;5724;42.684;23.252;2023-03-01T02:44:49;94717.94;;;5.05;99.46
11339;BME280;5724;42.684;23.252;2023-03-01T02:47:14;94731.19;;;5.15;99.43
11339;BME280;5724;42.684;23.252;2023-03-01T02:49:40;94740.75;;;5.12;99.12
11339;BME280;5724;42.684;23.252;2023-03-01T02:54:46;94732.91;;;5.11;99.05
11339;BME280;5724;42.684;23.252;2023-03-01T02:57:14;94721.13;;;5.07;99.89
11339;BME280;5724;42.684;23.252;2023-03-01T02:59:40;94735.34;;;5.12;100.00
11339;BME280;5724;42.684;23.252;2023-03-01T03:02:07;94733.06;;;4.97;100.00
11339;BME280;5724;42.684;23.252;2023-03-01T03:04:33;94725.13;;;5.09;100.00
11339;BME280;5724;42.684;23.252;2023-03-01T03:06:58;94718.75;;;5.05;100.00
11339;BME280;5724;42.684;23.252;2023-03-01T03:09:24;94727.34;;;5.07;100.00
11339;BME280;5724;42.684;23.252;2023-03-01T03:11:49;94724.28;;;5.00;100.00
11339;BME280;5724;42.684;23.252;2023-03-01T03:14:16;94727.19;;;5.04;100.00
11339;BME280;5724;42.684;23.252;2023-03-01T03:16:43;94729.69;;;4.92;100.00
11339;BME280;5724;42.684;23.252;2023-03-01T03:19:10;94728.72;;;4.87;100.00
11339;BME280;5724;42.684;23.252;2023-03-01T03:21:36;94732.69;;;4.90;100.00
11339;BME280;5724;42.684;23.252;2023-03-01T03:24:02;94733.97;;;4.84;100.00
11339;BME280;5724;42.684;23.252;2023-03-01T03:26:27;94727.28;;;4.90;100.00
11339;BME280;5724;42.684;23.252;2023-03-01T03:28:53;94726.13;;;4.82;100.00
11339;BME280;5724;42.684;23.252;2023-03-01T03:31:19;94740.50;;;4.83;100.00
11339;BME280;5724;42.684;23.252;2023-03-01T03:33:44;94735.69;;;4.80;100.00
11339;BME280;5724;42.684;23.252;2023-03-01T03:36:15;94738.28;;;4.85;100.00
11339;BME280;5724;42.684;23.252;2023-03-01T03:38:43;94744.84;;;4.93;100.00
11339;BME280;5724;42.684;23.252;2023-03-01T03:41:09;94726.13;;;4.82;100.00
11339;BME280;5724;42.684;23.252;2023-03-01T03:43:37;94742.41;;;4.91;100.00
11339;BME280;5724;42.684;23.252;2023-03-01T03:46:03;94738.88;;;4.82;100.00
11339;BME280;5724;42.684;23.252;2023-03-01T03:48:36;94746.19;;;4.81;100.00
11339;BME280;5724;42.684;23.252;2023-03-01T03:51:02;94742.06;;;4.75;100.00
11339;BME280;5724;42.684;23.252;2023-03-01T03:53:31;94731.22;;;4.75;100.00
11339;BME280;5724;42.684;23.252;2023-03-01T03:55:57;94725.97;;;4.79;100.00
11339;BME280;5724;42.684;23.252;2023-03-01T03:58:24;94723.75;;;4.81;100.00
11339;BME280;5724;42.684;23.252;2023-03-01T04:00:55;94725.38;;;4.91;100.00
11339;BME280;5724;42.684;23.252;2023-03-01T04:03:21;94736.81;;;4.79;100.00
11339;BME280;5724;42.684;23.252;2023-03-01T04:05:48;94718.97;;;4.78;100.00
11339;BME280;5724;42.684;23.252;2023-03-01T04:08:16;94740.94;;;4.76;100.00
11339;BME280;5724;42.684;23.252;2023-03-01T04:10:44;94736.16;;;4.73;100.00
11339;BME280;5724;42.684;23.252;2023-03-01T04:13:12;94737.25;;;4.72;100.00
11339;BME280;5724;42.684;23.252;2023-03-01T04:15:38;94728.47;;;4.67;100.00
11339;BME280;5724;42.684;23.252;2023-03-01T04:18:04;94737.88;;;4.69;100.00
11339;BME280;5724;42.684;23.252;2023-03-01T04:20:32;94721.22;;;4.53;100.00
11339;BME280;5724;42.684;23.252;2023-03-01T04:23:12;94728.13;;;4.59;100.00
11339;BME280;5724;42.684;23.252;2023-03-01T04:25:58;94731.56;;;4.51;100.00
11339;BME280;5724;42.684;23.252;2023-03-01T04:28:32;94743.66;;;4.45;100.00
11339;BME280;5724;42.684;23.252;2023-03-01T04:31:06;94735.28;;;4.55;100.00
11339;BME280;5724;42.684;23.252;2023-03-01T04:36:08;94716.41;;;4.42;100.00
11339;BME280;5724;42.684;23.252;2023-03-01T04:38:35;94711.19;;;4.45;100.00
11339;BME280;5724;42.684;23.252;2023-03-01T04:41:06;94719.53;;;4.57;100.00
11339;BME280;5724;42.684;23.252;2023-03-01T04:43:33;94701.34;;;4.49;100.00
11339;BME280;5724;42.684;23.252;2023-03-01T04:46:04;94714.75;;;4.63;100.00
11339;BME280;5724;42.684;23.252;2023-03-01T04:48:31;94724.13;;;4.57;100.00
11339;BME280;5724;42.684;23.252;2023-03-01T04:50:59;94718.41;;;4.58;100.00
11339;BME280;5724;42.684;23.252;2023-03-01T04:53:25;94702.13;;;4.50;100.00
11339;BME280;5724;42.684;23.252;2023-03-01T04:55:50;94716.34;;;4.55;100.00
11339;BME280;5724;42.684;23.252;2023-03-01T04:58:16;94721.00;;;4.64;100.00
11339;BME280;5724;42.684;23.252;2023-03-01T05:00:42;94711.44;;;4.66;100.00
11339;BME280;5724;42.684;23.252;2023-03-01T05:03:08;94722.22;;;4.97;100.00
11339;BME280;5724;42.684;23.252;2023-03-01T05:05:35;94725.94;;;5.18;100.00
11339;BME280;5724;42.684;23.252;2023-03-01T05:08:06;94720.19;;;5.03;100.00
11339;BME280;5724;42.684;23.252;2023-03-01T05:10:34;94724.94;;;4.97;100.00
11339;BME280;5724;42.684;23.252;2023-03-01T05:13:00;94730.91;;;4.77;100.00
11339;BME280;5724;42.684;23.252;2023-03-01T05:15:28;94722.63;;;4.82;100.00
11339;BME280;5724;42.684;23.252;2023-03-01T05:17:57;94721.94;;;4.68;100.00
11339;BME280;5724;42.684;23.252;2023-03-01T05:20:30;94735.59;;;4.63;100.00
11339;BME280;5724;42.684;23.252;2023-03-01T05:22:58;94742.84;;;4.76;100.00
11339;BME280;5724;42.684;23.252;2023-03-01T05:25:24;94744.59;;;4.80;100.00
11339;BME280;5724;42.684;23.252;2023-03-01T05:27:50;94727.72;;;4.75;100.00
11339;BME280;5724;42.684;23.252;2023-03-01T05:30:16;94730.06;;;4.68;100.00
11339;BME280;5724;42.684;23.252;2023-03-01T05:32:45;94730.25;;;4.71;100.00
11339;BME280;5724;42.684;23.252;2023-03-01T05:35:16;94721.81;;;4.73;100.00
11339;BME280;5724;42.684;23.252;2023-03-01T05:37:46;94723.22;;;4.70;100.00
11339;BME280;5724;42.684;23.252;2023-03-01T05:40:23;94729.63;;;4.74;100.00
11339;BME280;5724;42.684;23.252;2023-03-01T05:42:54;94729.88;;;4.55;100.00
11339;BME280;5724;42.684;23.252;2023-03-01T05:45:21;94723.22;;;4.70;100.00
11339;BME280;5724;42.684;23.252;2023-03-01T05:47:48;94730.38;;;4.66;100.00
11339;BME280;5724;42.684;23.252;2023-03-01T05:50:20;94735.38;;;4.81;100.00
11339;BME280;5724;42.684;23.252;2023-03-01T05:52:51;94747.16;;;4.77;100.00
11339;BME280;5724;42.684;23.252;2023-03-01T05:55:19;94748.91;;;4.81;100.00
11339;BME280;5724;42.684;23.252;2023-03-01T05:57:45;94746.41;;;4.85;100.00
11339;BME280;5724;42.684;23.252;2023-03-01T06:00:12;94755.53;;;4.67;100.00
11339;BME280;5724;42.684;23.252;2023-03-01T06:02:39;94759.97;;;4.63;100.00
11339;BME280;5724;42.684;23.252;2023-03-01T06:05:07;94750.25;;;4.62;100.00
11339;BME280;5724;42.684;23.252;2023-03-01T06:07:33;94755.59;;;4.44;100.00
11339;BME280;5724;42.684;23.252;2023-03-01T06:09:58;94765.69;;;4.61;100.00
11339;BME280;5724;42.684;23.252;2023-03-01T06:12:24;94735.75;;;4.57;100.00
11339;BME280;5724;42.684;23.252;2023-03-01T06:14:49;94772.75;;;4.71;100.00
11339;BME280;5724;42.684;23.252;2023-03-01T06:17:15;94771.94;;;4.70;100.00
11339;BME280;5724;42.684;23.252;2023-03-01T06:19:40;94757.50;;;4.75;100.00
11339;BME280;5724;42.684;23.252;2023-03-01T06:22:06;94777.28;;;4.84;100.00
11339;BME280;5724;42.684;23.252;2023-03-01T06:24:32;94774.44;;;4.89;100.00
11339;BME280;5724;42.684;23.252;2023-03-01T06:26:58;94776.53;;;5.01;100.00
11339;BME280;5724;42.684;23.252;2023-03-01T06:29:23;94780.41;;;5.08;100.00
11339;BME280;5724;42.684;23.252;2023-03-01T06:31:49;94788.00;;;4.98;100.00
11339;BME280;5724;42.684;23.252;2023-03-01T06:34:14;94785.44;;;4.93;100.00
11339;BME280;5724;42.684;23.252;2023-03-01T06:36:40;94772.84;;;4.88;100.00
11339;BME280;5724;42.684;23.252;2023-03-01T06:39:06;94778.53;;;4.78;100.00
11339;BME280;5724;42.684;23.252;2023-03-01T06:41:32;94779.84;;;4.89;100.00
11339;BME280;5724;42.684;23.252;2023-03-01T06:43:58;94787.09;;;5.02;100.00
11339;BME280;5724;42.684;23.252;2023-03-01T06:46:24;94784.97;;;4.99;100.00
11339;BME280;5724;42.684;23.252;2023-03-01T06:48:49;94785.97;;;5.03;100.00
11339;BME280;5724;42.684;23.252;2023-03-01T06:51:15;94788.53;;;5.08;100.00
11339;BME280;5724;42.684;23.252;2023-03-01T06:53:40;94783.81;;;4.92;100.00
11339;BME280;5724;42.684;23.252;2023-03-01T06:56:06;94787.56;;;5.04;100.00
11339;BME280;5724;42.684;23.252;2023-03-01T06:58:31;94780.78;;;5.24;100.00
11339;BME280;5724;42.684;23.252;2023-03-01T07:00:57;94785.53;;;5.18;99.50
11339;BME280;5724;42.684;23.252;2023-03-01T07:03:23;94788.88;;;5.15;99.87
11339;BME280;5724;42.684;23.252;2023-03-01T07:05:49;94769.63;;;5.26;99.20
11339;BME280;5724;42.684;23.252;2023-03-01T07:08:17;94787.34;;;5.32;98.92
11339;BME280;5724;42.684;23.252;2023-03-01T07:10:43;94781.75;;;5.37;99.02
11339;BME280;5724;42.684;23.252;2023-03-01T07:13:09;94774.78;;;5.44;98.54
11339;BME280;5724;42.684;23.252;2023-03-01T07:15:34;94776.81;;;5.39;97.90
11339;BME280;5724;42.684;23.252;2023-03-01T07:17:59;94777.66;;;5.48;97.79
11339;BME280;5724;42.684;23.252;2023-03-01T07:20:25;94779.41;;;5.44;97.00
11339;BME280;5724;42.684;23.252;2023-03-01T07:22:51;94770.00;;;5.41;97.44
11339;BME280;5724;42.684;23.252;2023-03-01T07:25:17;94773.34;;;5.47;96.94
11339;BME280;5724;42.684;23.252;2023-03-01T07:27:42;94771.59;;;5.42;96.91
11339;BME280;5724;42.684;23.252;2023-03-01T07:30:09;94772.25;;;5.57;95.78
11339;BME280;5724;42.684;23.252;2023-03-01T07:32:34;94781.50;;;5.64;96.06
11339;BME280;5724;42.684;23.252;2023-03-01T07:35:00;94770.81;;;5.68;95.74
11339;BME280;5724;42.684;23.252;2023-03-01T07:37:25;94775.63;;;5.71;95.41
11339;BME280;5724;42.684;23.252;2023-03-01T07:39:51;94774.84;;;5.70;95.25
11339;BME280;5724;42.684;23.252;2023-03-01T07:42:16;94769.72;;;5.60;94.71
11339;BME280;5724;42.684;23.252;2023-03-01T07:44:42;94773.53;;;5.77;94.71
11339;BME280;5724;42.684;23.252;2023-03-01T07:47:07;94777.91;;;6.03;93.65
11339;BME280;5724;42.684;23.252;2023-03-01T07:49:32;94760.97;;;6.07;93.22
11339;BME280;5724;42.684;23.252;2023-03-01T07:51:58;94774.06;;;6.13;93.35
11339;BME280;5724;42.684;23.252;2023-03-01T07:54:23;94771.03;;;6.15;93.53
11339;BME280;5724;42.684;23.252;2023-03-01T07:56:49;94765.59;;;6.32;92.45
11339;BME280;5724;42.684;23.252;2023-03-01T07:59:15;94756.19;;;6.29;92.33
11339;BME280;5724;42.684;23.252;2023-03-01T08:01:40;94762.53;;;6.51;90.95
11339;BME280;5724;42.684;23.252;2023-03-01T08:04:08;94768.28;;;6.58;91.60
11339;BME280;5724;42.684;23.252;2023-03-01T08:06:35;94763.59;;;6.76;90.44
11339;BME280;5724;42.684;23.252;2023-03-01T08:09:01;94767.81;;;7.03;89.53
11339;BME280;5724;42.684;23.252;2023-03-01T08:11:27;94755.34;;;7.02;88.65
11339;BME280;5724;42.684;23.252;2023-03-01T08:13:55;94769.69;;;7.11;88.18
11339;BME280;5724;42.684;23.252;2023-03-01T08:16:21;94765.66;;;7.26;90.57
11339;BME280;5724;42.684;23.252;2023-03-01T08:18:47;94758.38;;;7.09;87.12
11339;BME280;5724;42.684;23.252;2023-03-01T08:21:16;94772.75;;;7.09;86.55
11339;BME280;5724;42.684;23.252;2023-03-01T08:23:43;94772.00;;;6.92;86.59
11339;BME280;5724;42.684;23.252;2023-03-01T08:26:14;94772.72;;;6.71;87.51
11339;BME280;5724;42.684;23.252;2023-03-01T08:28:41;94772.06;;;6.74;88.20
11339;BME280;5724;42.684;23.252;2023-03-01T08:33:55;94766.84;;;6.60;88.23
11339;BME280;5724;42.684;23.252;2023-03-01T08:36:29;94764.44;;;6.59;89.17
11339;BME280;5724;42.684;23.252;2023-03-01T08:38:55;94764.59;;;6.54;89.04
11339;BME280;5724;42.684;23.252;2023-03-01T08:41:20;94767.16;;;6.50;88.87
11339;BME280;5724;42.684;23.252;2023-03-01T08:43:46;94772.75;;;6.45;89.70
11339;BME280;5724;42.684;23.252;2023-03-01T08:46:12;94767.19;;;6.33;89.32
11339;BME280;5724;42.684;23.252;2023-03-01T08:48:38;94759.19;;;6.37;89.89
11339;BME280;5724;42.684;23.252;2023-03-01T08:51:10;94768.28;;;6.49;89.38
11339;BME280;5724;42.684;23.252;2023-03-01T08:53:35;94768.63;;;6.48;87.47
11339;BME280;5724;42.684;23.252;2023-03-01T08:56:01;94777.53;;;6.57;87.53
11339;BME280;5724;42.684;23.252;2023-03-01T08:58:28;94764.91;;;6.61;88.18
11339;BME280;5724;42.684;23.252;2023-03-01T09:00:53;94759.31;;;6.66;87.28
11339;BME280;5724;42.684;23.252;2023-03-01T09:03:19;94768.06;;;6.72;86.45
11339;BME280;5724;42.684;23.252;2023-03-01T09:05:44;94763.88;;;6.83;85.90
11339;BME280;5724;42.684;23.252;2023-03-01T09:08:11;94761.13;;;7.00;85.35
11339;BME280;5724;42.684;23.252;2023-03-01T09:10:39;94770.69;;;7.06;84.35
11339;BME280;5724;42.684;23.252;2023-03-01T09:13:05;94767.81;;;7.03;84.22
11339;BME280;5724;42.684;23.252;2023-03-01T09:15:30;94773.84;;;7.17;83.71
11339;BME280;5724;42.684;23.252;2023-03-01T09:17:56;94764.84;;;7.25;83.58
11339;BME280;5724;42.684;23.252;2023-03-01T09:20:21;94755.78;;;7.12;83.56
11339;BME280;5724;42.684;23.252;2023-03-01T09:22:47;94758.88;;;7.02;83.47
11339;BME280;5724;42.684;23.252;2023-03-01T09:25:12;94749.56;;;7.12;83.89
11339;BME280;5724;42.684;23.252;2023-03-01T09:27:38;94756.06;;;7.20;83.68
11339;BME280;5724;42.684;23.252;2023-03-01T09:30:03;94756.69;;;7.25;83.20
11339;BME280;5724;42.684;23.252;2023-03-01T09:32:32;94763.25;;;7.24;83.08
11339;BME280;5724;42.684;23.252;2023-03-01T09:34:58;94757.47;;;7.34;82.42
11339;BME280;5724;42.684;23.252;2023-03-01T09:37:29;94756.38;;;7.27;82.49
11339;BME280;5724;42.684;23.252;2023-03-01T09:39:54;94748.63;;;7.37;82.35
11339;BME280;5724;42.684;23.252;2023-03-01T09:42:20;94757.09;;;7.44;81.83
11339;BME280;5724;42.684;23.252;2023-03-01T09:44:51;94749.06;;;7.48;82.38
11339;BME280;5724;42.684;23.252;2023-03-01T09:47:34;94738.72;;;7.62;81.67
11339;BME280;5724;42.684;23.252;2023-03-01T09:50:13;94747.53;;;7.59;81.36
11339;BME280;5724;42.684;23.252;2023-03-01T09:52:43;94743.47;;;7.74;80.86
11339;BME280;5724;42.684;23.252;2023-03-01T09:55:15;94742.13;;;7.80;80.34
11339;BME280;5724;42.684;23.252;2023-03-01T09:57:55;94737.09;;;7.40;81.16
11339;BME280;5724;42.684;23.252;2023-03-01T10:03:01;94716.47;;;7.39;81.78
11339;BME280;5724;42.684;23.252;2023-03-01T10:05:52;94731.88;;;7.35;82.02
11339;BME280;5724;42.684;23.252;2023-03-01T10:11:05;94727.22;;;7.36;82.75
11339;BME280;5724;42.684;23.252;2023-03-01T10:13:48;94726.22;;;7.40;81.98
11339;BME280;5724;42.684;23.252;2023-03-01T10:16:27;94711.84;;;7.40;82.40
11339;BME280;5724;42.684;23.252;2023-03-01T10:18:59;94720.72;;;7.49;82.01
11339;BME280;5724;42.684;23.252;2023-03-01T10:21:27;94718.06;;;7.40;82.20
11339;BME280;5724;42.684;23.252;2023-03-01T10:23:55;94717.09;;;7.45;82.33
11339;BME280;5724;42.684;23.252;2023-03-01T10:29:07;94701.13;;;7.43;82.41
11339;BME280;5724;42.684;23.252;2023-03-01T10:31:43;94718.69;;;7.46;82.53
11339;BME280;5724;42.684;23.252;2023-03-01T10:34:18;94709.84;;;7.28;83.79
11339;BME280;5724;42.684;23.252;2023-03-01T10:36:48;94712.00;;;7.43;83.07
11339;BME280;5724;42.684;23.252;2023-03-01T10:39:17;94704.41;;;7.49;83.09
11339;BME280;5724;42.684;23.252;2023-03-01T10:42:00;94710.09;;;7.65;82.41
11339;BME280;5724;42.684;23.252;2023-03-01T10:44:46;94712.34;;;7.63;82.55
11339;BME280;5724;42.684;23.252;2023-03-01T10:47:21;94711.28;;;7.76;82.10
11339;BME280;5724;42.684;23.252;2023-03-01T10:49:55;94720.09;;;7.73;82.08
11339;BME280;5724;42.684;23.252;2023-03-01T10:52:25;94711.22;;;7.85;81.30
11339;BME280;5724;42.684;23.252;2023-03-01T10:57:39;94708.53;;;7.97;80.91
11339;BME280;5724;42.684;23.252;2023-03-01T11:05:21;94711.56;;;7.83;80.42
11339;BME280;5724;42.684;23.252;2023-03-01T11:07:57;94721.69;;;7.95;80.27
11339;BME280;5724;42.684;23.252;2023-03-01T11:10:28;94718.75;;;7.79;80.63
11339;BME280;5724;42.684;23.252;2023-03-01T11:12:56;94708.69;;;7.80;80.13
11339;BME280;5724;42.684;23.252;2023-03-01T11:15:30;94709.97;;;7.82;80.30
11339;BME280;5724;42.684;23.252;2023-03-01T11:17:56;94704.97;;;7.63;80.90
11339;BME280;5724;42.684;23.252;2023-03-01T11:20:35;94683.06;;;7.60;81.04
11339;BME280;5724;42.684;23.252;2023-03-01T11:23:09;94711.78;;;7.69;80.68
11339;BME280;5724;42.684;23.252;2023-03-01T11:25:39;94702.72;;;7.65;80.69
11339;BME280;5724;42.684;23.252;2023-03-01T11:28:06;94702.91;;;7.60;80.95
11339;BME280;5724;42.684;23.252;2023-03-01T11:36:11;94694.81;;;7.93;83.94
11339;BME280;5724;42.684;23.252;2023-03-01T11:38:39;94682.03;;;7.73;80.96
11339;BME280;5724;42.684;23.252;2023-03-01T11:41:25;94686.78;;;7.76;80.63
11339;BME280;5724;42.684;23.252;2023-03-01T11:43:52;94686.06;;;7.67;81.06
11339;BME280;5724;42.684;23.252;2023-03-01T12:00:14;94663.63;;;7.70;82.02
11339;BME280;5724;42.684;23.252;2023-03-01T12:13:55;94652.09;;;7.94;81.58
11339;BME280;5724;42.684;23.252;2023-03-01T12:21:48;94641.06;;;8.23;81.04
11339;BME280;5724;42.684;23.252;2023-03-01T12:30:31;94641.81;;;8.45;79.42
11339;BME280;5724;42.684;23.252;2023-03-01T12:36:07;94637.22;;;8.70;78.54
11339;BME280;5724;42.684;23.252;2023-03-01T12:41:35;94632.31;;;8.87;77.04
11339;BME280;5724;42.684;23.252;2023-03-01T12:46:56;94634.94;;;8.84;76.13
11339;BME280;5724;42.684;23.252;2023-03-01T12:52:02;94629.97;;;8.98;74.72
11339;BME280;5724;42.684;23.252;2023-03-01T12:54:36;94638.13;;;9.10;75.08
11339;BME280;5724;42.684;23.252;2023-03-01T13:02:50;94635.03;;;8.87;75.90
11339;BME280;5724;42.684;23.252;2023-03-01T13:05:31;94634.13;;;8.96;76.42
11339;BME280;5724;42.684;23.252;2023-03-01T13:08:05;94631.06;;;8.97;75.24
11339;BME280;5724;42.684;23.252;2023-03-01T13:10:43;94628.13;;;8.90;75.68
11339;BME280;5724;42.684;23.252;2023-03-01T13:13:23;94637.22;;;9.18;74.58
11339;BME280;5724;42.684;23.252;2023-03-01T13:15:50;94633.34;;;9.20;73.99
11339;BME280;5724;42.684;23.252;2023-03-01T13:20:49;94638.00;;;9.07;74.21
11339;BME280;5724;42.684;23.252;2023-03-01T13:26:16;94633.78;;;8.97;74.59
11339;BME280;5724;42.684;23.252;2023-03-01T13:39:28;94640.72;;;8.70;75.86
11339;BME280;5724;42.684;23.252;2023-03-01T13:41:57;94637.78;;;8.75;75.09
11339;BME280;5724;42.684;23.252;2023-03-01T13:54:56;94631.53;;;8.50;76.48
11339;BME280;5724;42.684;23.252;2023-03-01T13:57:27;94628.09;;;8.41;76.57
11339;BME280;5724;42.684;23.252;2023-03-01T13:59:54;94604.66;;;8.28;77.03
11339;BME280;5724;42.684;23.252;2023-03-01T14:02:20;94626.88;;;8.63;77.21
11339;BME280;5724;42.684;23.252;2023-03-01T14:04:56;94630.38;;;8.51;77.57
11339;BME280;5724;42.684;23.252;2023-03-01T14:07:23;94622.56;;;8.62;78.73
11339;BME280;5724;42.684;23.252;2023-03-01T14:10:03;94620.63;;;8.63;79.34
11339;BME280;5724;42.684;23.252;2023-03-01T14:15:26;94621.66;;;8.82;77.76
11339;BME280;5724;42.684;23.252;2023-03-01T14:18:14;94616.09;;;8.91;77.58
11339;BME280;5724;42.684;23.252;2023-03-01T14:20:44;94616.44;;;9.02;77.40
11339;BME280;5724;42.684;23.252;2023-03-01T14:23:22;94597.25;;;8.86;77.35
11339;BME280;5724;42.684;23.252;2023-03-01T14:25:54;94621.53;;;9.03;77.50
11339;BME280;5724;42.684;23.252;2023-03-01T14:28:26;94622.66;;;9.14;77.02
11339;BME280;5724;42.684;23.252;2023-03-01T14:30:54;94604.50;;;9.06;75.88
11339;BME280;5724;42.684;23.252;2023-03-01T14:33:35;94612.22;;;9.04;76.08
11339;BME280;5724;42.684;23.252;2023-03-01T14:36:12;94611.19;;;8.97;76.62
11339;BME280;5724;42.684;23.252;2023-03-01T14:38:46;94608.94;;;8.86;77.30
11339;BME280;5724;42.684;23.252;2023-03-01T14:41:14;94609.25;;;8.97;77.18
11339;BME280;5724;42.684;23.252;2023-03-01T14:43:44;94610.13;;;9.26;82.16
11339;BME280;5724;42.684;23.252;2023-03-01T14:48:44;94612.69;;;9.59;79.36
11339;BME280;5724;42.684;23.252;2023-03-01T14:51:11;94599.75;;;9.56;76.67
11339;BME280;5724;42.684;23.252;2023-03-01T14:53:37;94611.34;;;9.53;75.78
11339;BME280;5724;42.684;23.252;2023-03-01T14:56:03;94608.94;;;9.11;76.10
11339;BME280;5724;42.684;23.252;2023-03-01T14:58:28;94597.81;;;8.92;79.01
11339;BME280;5724;42.684;23.252;2023-03-01T15:00:59;94591.13;;;9.01;81.02
11339;BME280;5724;42.684;23.252;2023-03-01T15:03:31;94599.19;;;8.73;79.93
11339;BME280;5724;42.684;23.252;2023-03-01T15:06:00;94599.97;;;8.74;81.24
11339;BME280;5724;42.684;23.252;2023-03-01T15:08:27;94589.41;;;8.48;81.79
11339;BME280;5724;42.684;23.252;2023-03-01T15:13:30;94589.63;;;8.43;81.90
11339;BME280;5724;42.684;23.252;2023-03-01T15:16:15;94598.59;;;8.10;82.80
11339;BME280;5724;42.684;23.252;2023-03-01T15:18:47;94590.38;;;7.86;82.92